createdAt,value
2019-04-21T00:00:13.190Z,46.40
2019-04-21T00:02:44.256Z,46.50
2019-04-21T00:05:38.147Z,46.80
2019-04-21T00:08:21.453Z,46.60
2019-04-21T00:10:47.920Z,46.30
2019-04-21T00:13:12.402Z,46.60
2019-04-21T00:15:38.665Z,47.50
2019-04-21T00:18:11.068Z,46.80
2019-04-21T00:20:49.504Z,46.90
2019-04-21T00:23:29.555Z,47.00
2019-04-21T00:25:55.183Z,47.00
2019-04-21T00:28:45.611Z,46.40
2019-04-21T00:31:06.571Z,47.00
2019-04-21T00:33:28.299Z,47.00
2019-04-21T00:36:07.528Z,46.60
2019-04-21T00:38:59.070Z,46.40
2019-04-21T00:41:24.955Z,47.30
2019-04-21T00:43:49.448Z,47.00
2019-04-21T00:46:23.396Z,47.00
2019-04-21T00:48:57.482Z,47.50
2019-04-21T00:51:43.621Z,47.90
2019-04-21T00:54:12.637Z,48.10
2019-04-21T00:56:41.028Z,48.30
2019-04-21T00:59:13.941Z,48.70
2019-04-21T01:01:46.020Z,49.20
2019-04-21T01:04:44.283Z,49.20
2019-04-21T01:07:22.209Z,49.40
2019-04-21T01:09:45.354Z,49.90
2019-04-21T01:12:34.981Z,49.90
2019-04-21T01:15:12.331Z,50.00
2019-04-21T01:17:38.908Z,49.80
2019-04-21T01:20:01.731Z,50.30
2019-04-21T01:22:20.989Z,50.40
2019-04-21T01:25:01.712Z,51.00
2019-04-21T01:27:47.924Z,50.60
2019-04-21T01:30:29.771Z,50.30
2019-04-21T01:33:17.366Z,50.10
2019-04-21T01:35:45.306Z,50.20
2019-04-21T01:38:21.701Z,50.20
2019-04-21T01:40:56.751Z,50.10
2019-04-21T01:43:23.423Z,50.00
2019-04-21T01:45:56.509Z,50.00
2019-04-21T01:48:41.516Z,49.70
2019-04-21T01:54:35.284Z,49.60
2019-04-21T01:57:07.290Z,49.40
2019-04-21T01:59:39.499Z,49.30
2019-04-21T02:02:41.445Z,49.20
2019-04-21T02:05:26.389Z,50.90
2019-04-21T02:08:01.081Z,50.30
2019-04-21T02:10:49.080Z,50.60
2019-04-21T02:13:14.402Z,52.10
2019-04-21T02:15:49.580Z,52.40
2019-04-21T02:18:27.294Z,52.70
2019-04-21T02:21:00.501Z,52.60
2019-04-21T02:24:05.513Z,52.80
2019-04-21T02:26:36.162Z,52.30
2019-04-21T02:29:29.453Z,52.30
2019-04-21T02:32:01.971Z,52.10
2019-04-21T02:39:43.619Z,52.10
2019-04-21T02:47:31.263Z,52.00
2019-04-21T02:57:51.403Z,58.10
2019-04-21T03:00:29.993Z,60.50
2019-04-21T03:03:16.109Z,64.70
2019-04-21T03:06:24.803Z,67.80
2019-04-21T03:11:08.664Z,73.40
2019-04-21T03:13:50.775Z,80.40
2019-04-21T03:24:01.200Z,98.90
2019-04-21T03:26:27.454Z,99.90
2019-04-21T03:28:52.430Z,99.90
2019-04-21T03:31:58.623Z,99.90
2019-04-21T03:34:31.755Z,99.90
2019-04-21T03:39:01.258Z,99.90
2019-04-21T03:41:47.773Z,99.90
2019-04-21T03:44:14.575Z,99.90
2019-04-21T03:49:23.069Z,99.90
2019-04-21T03:51:57.324Z,99.90
2019-04-21T03:54:17.135Z,99.90
2019-04-21T03:59:36.165Z,99.90
2019-04-21T04:02:23.068Z,99.90
2019-04-21T04:04:52.701Z,99.90
2019-04-21T04:07:49.698Z,99.90
2019-04-21T04:10:13.910Z,99.90
2019-04-21T04:12:50.388Z,99.90
2019-04-21T04:15:31.026Z,99.90
2019-04-21T04:18:00.872Z,99.90
2019-04-21T04:20:31.287Z,99.90
2019-04-21T04:23:02.906Z,99.90
2019-04-21T04:25:44.839Z,99.90
2019-04-21T04:28:38.121Z,99.90
2019-04-21T04:30:51.983Z,99.90
2019-04-21T04:33:27.917Z,99.90
2019-04-21T04:36:01.377Z,99.90
2019-04-21T04:41:07.969Z,99.90
2019-04-21T04:43:55.461Z,99.90
2019-04-21T04:51:36.547Z,99.90
2019-04-21T04:53:43.951Z,99.90
2019-04-21T04:56:12.303Z,99.90
2019-04-21T04:59:20.056Z,99.90
2019-04-21T05:03:50.189Z,99.90
2019-04-21T05:09:09.398Z,99.90
2019-04-21T05:19:18.150Z,99.90
2019-04-21T05:23:59.836Z,99.90
2019-04-21T05:26:33.180Z,99.90
2019-04-21T05:29:01.724Z,99.90
2019-04-21T05:32:13.470Z,99.90
2019-04-21T05:34:50.411Z,99.90
2019-04-21T05:38:00.151Z,99.90
2019-04-21T05:40:28.732Z,98.00
2019-04-21T05:43:09.465Z,96.80
2019-04-21T05:45:40.784Z,97.90
2019-04-21T05:48:24.229Z,98.00
2019-04-21T05:50:49.499Z,99.90
2019-04-21T05:53:31.042Z,99.90
2019-04-21T05:55:56.707Z,99.90
2019-04-21T05:58:27.210Z,99.90
2019-04-21T06:03:44.824Z,99.90
2019-04-21T06:06:22.017Z,99.90
2019-04-21T06:08:46.782Z,99.90
2019-04-21T06:11:19.246Z,99.90
2019-04-21T06:13:54.956Z,99.90
2019-04-21T06:16:43.145Z,99.90
2019-04-21T06:21:26.371Z,99.90
2019-04-21T06:23:57.559Z,99.90
2019-04-21T06:29:04.009Z,98.50
2019-04-21T06:32:02.048Z,98.40
2019-04-21T06:34:04.718Z,97.40
2019-04-21T06:36:43.990Z,96.10
2019-04-21T06:39:40.257Z,91.80
2019-04-21T06:41:51.583Z,78.30
2019-04-21T06:44:23.706Z,69.20
2019-04-21T06:46:51.727Z,62.60
2019-04-21T06:49:28.104Z,58.70
2019-04-21T06:52:11.568Z,57.00
2019-04-21T06:54:35.220Z,55.90
2019-04-21T06:57:00.167Z,53.80
2019-04-21T06:59:32.009Z,51.20
2019-04-21T07:02:25.791Z,50.80
2019-04-21T07:04:46.443Z,52.30
2019-04-21T07:07:17.178Z,53.10
2019-04-21T07:09:52.944Z,55.30
2019-04-21T07:12:20.244Z,57.10
2019-04-21T07:14:53.240Z,57.20
2019-04-21T07:17:24.607Z,56.60
2019-04-21T07:19:55.357Z,58.50
2019-04-21T07:22:30.605Z,58.40
2019-04-21T07:25:03.099Z,57.00
2019-04-21T07:27:35.400Z,55.60
2019-04-21T07:30:26.699Z,52.60
2019-04-21T07:32:42.819Z,51.70
2019-04-21T07:35:12.021Z,50.50
2019-04-21T07:37:46.098Z,49.40
2019-04-21T07:40:09.456Z,49.20
2019-04-21T07:42:37.963Z,49.60
2019-04-21T07:45:13.347Z,48.70
2019-04-21T07:47:50.741Z,48.40
2019-04-21T07:50:33.972Z,48.70
2019-04-21T07:53:08.615Z,49.40
2019-04-21T07:58:12.846Z,49.40
2019-04-21T08:00:51.080Z,49.50
2019-04-21T08:03:19.317Z,49.50
2019-04-21T08:05:54.769Z,49.60
2019-04-21T08:08:20.927Z,49.00
2019-04-21T08:10:50.664Z,47.70
2019-04-21T08:13:34.579Z,44.70
2019-04-21T08:15:58.246Z,42.60
2019-04-21T08:18:35.315Z,40.50
2019-04-21T08:21:02.739Z,39.30
2019-04-21T08:23:32.871Z,37.00
2019-04-21T08:26:04.488Z,35.70
2019-04-21T08:28:42.501Z,34.20
2019-04-21T08:31:14.584Z,33.30
2019-04-21T08:33:51.424Z,32.80
2019-04-21T08:36:24.544Z,33.80
2019-04-21T08:38:49.554Z,32.30
2019-04-21T08:41:18.653Z,31.10
2019-04-21T08:43:51.557Z,30.50
2019-04-21T08:46:25.639Z,29.60
2019-04-21T08:49:15.728Z,29.40
2019-04-21T08:51:57.202Z,30.10
2019-04-21T08:57:21.697Z,28.80
2019-04-21T09:00:16.857Z,28.80
2019-04-21T09:03:01.766Z,28.50
2019-04-21T09:05:36.734Z,27.80
2019-04-21T09:08:13.759Z,27.60
2019-04-21T09:10:45.590Z,27.50
2019-04-21T09:13:17.182Z,27.30
2019-04-21T09:15:52.355Z,27.50
2019-04-21T09:18:22.847Z,28.00
2019-04-21T09:21:04.668Z,28.00
2019-04-21T09:23:39.624Z,28.20
2019-04-21T09:26:14.107Z,28.40
2019-04-21T09:28:38.359Z,28.40
2019-04-21T09:30:58.495Z,28.70
2019-04-21T09:33:33.480Z,27.80
2019-04-21T09:36:01.577Z,27.50
2019-04-21T09:38:37.100Z,26.50
2019-04-21T09:41:06.680Z,27.00
2019-04-21T09:43:48.402Z,27.00
2019-04-21T09:46:18.547Z,25.70
2019-04-21T09:48:55.681Z,25.30
2019-04-21T09:51:26.043Z,25.60
2019-04-21T09:54:01.782Z,26.10
2019-04-21T09:56:41.528Z,26.10
2019-04-21T09:59:13.228Z,26.30
2019-04-21T10:01:50.347Z,26.40
2019-04-21T10:04:09.778Z,25.80
2019-04-21T10:06:43.266Z,24.90
2019-04-21T10:09:17.378Z,23.80
2019-04-21T10:11:45.963Z,23.50
2019-04-21T10:14:15.906Z,23.50
2019-04-21T10:17:05.065Z,23.70
2019-04-21T10:19:38.210Z,23.40
2019-04-21T10:22:08.708Z,23.90
2019-04-21T10:24:40.354Z,23.50
2019-04-21T10:27:12.882Z,22.70
2019-04-21T10:29:53.979Z,23.60
2019-04-21T10:32:25.631Z,23.80
2019-04-21T10:34:57.003Z,22.80
2019-04-21T10:37:47.409Z,22.20
2019-04-21T10:40:09.694Z,21.90
2019-04-21T10:42:42.479Z,21.80
2019-04-21T10:45:17.055Z,21.60
2019-04-21T10:47:50.129Z,21.00
2019-04-21T10:50:28.961Z,21.50
2019-04-21T10:53:16.587Z,21.50
2019-04-21T10:56:03.096Z,21.00
2019-04-21T10:58:32.423Z,20.30
2019-04-21T11:01:16.813Z,20.20
2019-04-21T11:04:20.218Z,20.30
2019-04-21T11:06:42.440Z,21.20
2019-04-21T11:09:15.806Z,21.20
2019-04-21T11:11:53.761Z,19.20
2019-04-21T11:14:33.455Z,18.40
2019-04-21T11:17:06.054Z,18.90
2019-04-21T11:19:37.002Z,18.40
2019-04-21T11:22:08.091Z,18.30
2019-04-21T11:24:40.837Z,18.90
2019-04-21T11:27:14.983Z,17.90
2019-04-21T11:29:47.354Z,17.10
2019-04-21T11:32:18.976Z,17.10
2019-04-21T11:34:53.023Z,17.20
2019-04-21T11:37:28.255Z,17.30
2019-04-21T11:40:09.145Z,17.10
2019-04-21T11:42:40.139Z,17.10
2019-04-21T11:45:18.651Z,16.90
2019-04-21T11:48:08.108Z,16.90
2019-04-21T11:50:43.437Z,16.90
2019-04-21T11:53:16.906Z,17.20
2019-04-21T11:55:58.865Z,17.00
2019-04-21T11:58:31.945Z,16.80
2019-04-21T12:01:05.605Z,16.60
2019-04-21T12:03:41.991Z,16.90
2019-04-21T12:06:15.425Z,17.10
2019-04-21T12:08:52.944Z,17.50
2019-04-21T12:11:33.687Z,17.70
2019-04-21T12:14:05.956Z,17.40
2019-04-21T12:16:37.081Z,17.40
2019-04-21T12:19:12.497Z,18.00
2019-04-21T12:21:57.338Z,18.70
2019-04-21T12:24:21.897Z,18.80
2019-04-21T12:26:53.892Z,18.30
2019-04-21T12:29:45.804Z,17.90
2019-04-21T12:32:44.295Z,17.90
2019-04-21T12:35:15.770Z,18.00
2019-04-21T12:37:48.893Z,18.00
2019-04-21T12:40:20.965Z,18.10
2019-04-21T12:42:52.521Z,17.90
2019-04-21T12:45:24.101Z,17.70
2019-04-21T12:47:57.928Z,17.80
2019-04-21T12:50:32.098Z,17.90
2019-04-21T12:53:07.445Z,18.00
2019-04-21T12:55:44.014Z,18.60
2019-04-21T12:58:15.748Z,18.40
2019-04-21T13:01:04.954Z,18.90
2019-04-21T13:03:42.028Z,19.30
2019-04-21T13:06:12.243Z,19.30
2019-04-21T13:08:51.845Z,18.10
2019-04-21T13:11:21.378Z,18.10
2019-04-21T13:13:52.088Z,17.80
2019-04-21T13:16:25.343Z,17.90
2019-04-21T13:18:55.611Z,17.90
2019-04-21T13:21:27.769Z,17.30
2019-04-21T13:23:58.880Z,16.90
2019-04-21T13:26:42.469Z,17.00
2019-04-21T13:29:16.659Z,17.00
2019-04-21T13:31:48.072Z,16.70
2019-04-21T13:34:22.123Z,17.10
2019-04-21T13:36:59.345Z,17.10
2019-04-21T13:40:14.621Z,17.10
2019-04-21T13:42:38.324Z,17.10
2019-04-21T13:45:04.424Z,17.50
2019-04-21T13:47:40.813Z,17.70
2019-04-21T13:50:13.544Z,17.80
2019-04-21T13:52:56.561Z,18.30
2019-04-21T13:55:27.539Z,18.60
2019-04-21T13:57:59.452Z,19.30
2019-04-21T14:00:31.679Z,20.60
2019-04-21T14:03:04.760Z,21.30
2019-04-21T14:05:36.198Z,21.50
2019-04-21T14:08:07.401Z,21.00
2019-04-21T14:10:37.715Z,21.40
2019-04-21T14:13:12.678Z,21.40
2019-04-21T14:15:48.226Z,21.60
2019-04-21T14:18:20.643Z,21.60
2019-04-21T14:20:55.479Z,21.90
2019-04-21T14:23:35.551Z,22.30
2019-04-21T14:26:01.751Z,21.90
2019-04-21T14:28:41.002Z,22.10
2019-04-21T14:31:14.466Z,22.20
2019-04-21T14:33:47.955Z,22.50
2019-04-21T14:36:18.873Z,22.70
2019-04-21T14:38:52.268Z,23.20
2019-04-21T14:41:26.369Z,23.20
2019-04-21T14:44:01.068Z,23.20
2019-04-21T14:46:57.388Z,23.20
2019-04-21T14:49:47.283Z,23.10
2019-04-21T14:52:21.295Z,23.40
2019-04-21T14:55:20.818Z,23.00
2019-04-21T14:57:52.743Z,22.90
2019-04-21T15:00:31.397Z,23.10
2019-04-21T15:03:07.690Z,23.20
2019-04-21T15:05:39.747Z,23.30
2019-04-21T15:08:11.123Z,23.40
2019-04-21T15:10:43.003Z,23.50
2019-04-21T15:13:14.034Z,23.30
2019-04-21T15:15:46.153Z,23.60
2019-04-21T15:18:16.872Z,23.70
2019-04-21T15:20:50.559Z,23.90
2019-04-21T15:23:26.321Z,23.90
2019-04-21T15:26:00.007Z,23.90
2019-04-21T15:28:42.326Z,23.80
2019-04-21T15:31:28.728Z,23.90
2019-04-21T15:33:57.321Z,23.90
2019-04-21T15:36:32.181Z,23.80
2019-04-21T15:39:03.539Z,23.60
2019-04-21T15:41:40.803Z,23.60
2019-04-21T15:44:14.546Z,23.70
2019-04-21T15:46:56.019Z,24.00
2019-04-21T15:49:40.505Z,24.00
2019-04-21T15:52:02.493Z,23.80
2019-04-21T15:54:34.304Z,24.20
2019-04-21T15:57:28.279Z,24.20
2019-04-21T16:00:18.663Z,24.50
2019-04-21T16:02:54.839Z,24.30
2019-04-21T16:05:26.578Z,24.30
2019-04-21T16:08:06.149Z,24.10
2019-04-21T16:10:48.337Z,24.10
2019-04-21T16:13:14.040Z,24.10
2019-04-21T16:15:48.463Z,23.70
2019-04-21T16:18:22.500Z,24.00
2019-04-21T16:20:53.702Z,24.10
2019-04-21T16:23:33.566Z,24.10
2019-04-21T16:26:04.790Z,24.00
2019-04-21T16:28:41.732Z,23.90
2019-04-21T16:31:12.346Z,23.80
2019-04-21T16:33:45.222Z,24.00
2019-04-21T16:36:29.523Z,24.00
2019-04-21T16:39:15.481Z,24.30
2019-04-21T16:41:56.315Z,24.30
2019-04-21T16:44:29.511Z,24.30
2019-04-21T16:47:13.828Z,24.50
2019-04-21T16:49:49.932Z,24.80
2019-04-21T16:52:28.132Z,25.00
2019-04-21T16:55:10.826Z,25.20
2019-04-21T16:58:04.555Z,25.00
2019-04-21T17:00:36.775Z,25.20
2019-04-21T17:03:02.432Z,25.10
2019-04-21T17:05:42.486Z,25.10
2019-04-21T17:08:17.815Z,25.80
2019-04-21T17:11:02.921Z,25.60
2019-04-21T17:13:22.304Z,25.70
2019-04-21T17:16:10.994Z,26.20
2019-04-21T17:18:47.655Z,26.00
2019-04-21T17:21:25.988Z,26.20
2019-04-21T17:24:02.000Z,26.20
2019-04-21T17:26:44.641Z,26.40
2019-04-21T17:29:22.808Z,26.40
2019-04-21T17:31:53.292Z,26.80
2019-04-21T17:34:26.750Z,27.00
2019-04-21T17:37:01.016Z,26.90
2019-04-21T17:39:44.861Z,27.10
2019-04-21T17:42:33.543Z,27.40
2019-04-21T17:45:21.242Z,27.60
2019-04-21T17:48:01.289Z,27.70
2019-04-21T17:51:07.554Z,27.70
2019-04-21T17:54:03.097Z,27.10
2019-04-21T17:57:15.320Z,26.60
2019-04-21T17:59:44.780Z,26.90
2019-04-21T18:02:07.923Z,27.20
2019-04-21T18:04:49.666Z,26.80
2019-04-21T18:07:31.669Z,27.00
2019-04-21T18:10:10.090Z,26.40
2019-04-21T18:12:39.756Z,26.50
2019-04-21T18:15:34.017Z,26.40
2019-04-21T18:17:46.773Z,26.10
2019-04-21T18:20:23.930Z,26.30
2019-04-21T18:23:34.956Z,26.80
2019-04-21T18:26:02.958Z,27.20
2019-04-21T18:28:30.468Z,27.80
2019-04-21T18:31:14.769Z,29.00
2019-04-21T18:34:24.455Z,29.80
2019-04-21T18:36:59.340Z,30.30
2019-04-21T18:39:56.257Z,31.00
2019-04-21T18:42:53.233Z,31.60
2019-04-21T18:48:19.460Z,33.10
2019-04-21T18:51:06.344Z,33.40
2019-04-21T18:54:19.986Z,34.10
2019-04-21T18:56:51.384Z,34.50
2019-04-21T18:59:21.185Z,34.70
2019-04-21T19:01:55.169Z,34.90
2019-04-21T19:04:37.136Z,35.00
2019-04-21T19:07:37.812Z,35.00
2019-04-21T19:10:21.995Z,35.00
2019-04-21T19:13:20.402Z,34.90
2019-04-21T19:15:18.369Z,35.10
2019-04-21T19:18:28.027Z,34.60
2019-04-21T19:20:39.417Z,34.50
2019-04-21T19:23:10.123Z,34.70
2019-04-21T19:25:55.626Z,34.60
2019-04-21T19:28:31.917Z,34.70
2019-04-21T19:31:11.559Z,34.90
2019-04-21T19:33:40.401Z,35.20
2019-04-21T19:36:03.411Z,35.20
2019-04-21T19:38:45.812Z,35.40
2019-04-21T19:41:27.992Z,35.50
2019-04-21T19:44:21.710Z,35.60
2019-04-21T19:47:03.391Z,35.70
2019-04-21T19:49:46.945Z,35.90
2019-04-21T19:52:23.669Z,35.60
2019-04-21T19:54:49.113Z,36.10
2019-04-21T19:57:31.580Z,36.20
2019-04-21T20:00:07.442Z,36.30
2019-04-21T20:03:00.442Z,36.40
2019-04-21T20:05:59.347Z,36.60
2019-04-21T20:08:59.118Z,36.70
2019-04-21T20:11:34.250Z,36.80
2019-04-21T20:14:41.819Z,36.90
2019-04-21T20:16:59.334Z,37.10
2019-04-21T20:19:30.092Z,37.10
2019-04-21T20:22:01.382Z,37.30
2019-04-21T20:24:39.577Z,37.50
2019-04-21T20:27:19.977Z,37.50
2019-04-21T20:30:19.259Z,37.70
2019-04-21T20:33:20.246Z,37.90
2019-04-21T20:38:01.791Z,38.20
2019-04-21T20:40:41.388Z,38.30
2019-04-21T20:43:47.139Z,38.40
2019-04-21T20:46:36.609Z,38.60
2019-04-21T20:49:21.749Z,38.70
2019-04-21T20:52:14.100Z,38.80
2019-04-21T20:54:45.548Z,39.10
2019-04-21T20:57:41.822Z,39.20
2019-04-21T21:00:29.026Z,39.30
2019-04-21T21:03:18.152Z,39.50
2019-04-21T21:05:54.322Z,39.70
2019-04-21T21:08:35.707Z,39.70
2019-04-21T21:11:02.390Z,39.90
2019-04-21T21:13:44.755Z,40.20
2019-04-21T21:16:20.076Z,40.50
2019-04-21T21:19:19.158Z,40.70
2019-04-21T21:21:45.690Z,40.90
2019-04-21T21:24:21.843Z,41.20
2019-04-21T21:27:04.640Z,41.40
2019-04-21T21:29:51.319Z,41.70
2019-04-21T21:32:32.136Z,42.10
2019-04-21T21:35:12.007Z,42.20
2019-04-21T21:37:41.057Z,42.40
2019-04-21T21:40:20.076Z,42.50
2019-04-21T21:42:44.238Z,42.50
2019-04-21T21:45:17.850Z,42.40
2019-04-21T21:48:04.436Z,42.30
2019-04-21T21:50:29.867Z,42.50
2019-04-21T21:53:10.498Z,42.70
2019-04-21T21:55:42.528Z,42.80
2019-04-21T21:58:26.204Z,42.90
2019-04-21T22:00:58.922Z,42.70
2019-04-21T22:03:33.465Z,42.80
2019-04-21T22:06:04.974Z,42.70
2019-04-21T22:08:42.638Z,43.40
2019-04-21T22:11:15.826Z,43.10
2019-04-21T22:13:56.671Z,43.30
2019-04-21T22:16:46.670Z,43.30
2019-04-21T22:19:27.295Z,43.40
2019-04-21T22:22:07.684Z,43.20
2019-04-21T22:24:36.634Z,43.20
2019-04-21T22:27:01.062Z,43.00
2019-04-21T22:29:41.773Z,43.30
2019-04-21T22:32:23.358Z,43.30
2019-04-21T22:34:58.283Z,43.30
2019-04-21T22:37:39.311Z,43.40
2019-04-21T22:40:11.318Z,43.30
2019-04-21T22:42:35.144Z,43.10
2019-04-21T22:45:07.290Z,42.40
2019-04-21T22:47:39.861Z,42.30
2019-04-21T22:50:24.513Z,42.50
2019-04-21T22:53:03.473Z,42.30
2019-04-21T22:55:37.228Z,41.90
2019-04-21T22:58:11.593Z,41.90
2019-04-21T23:00:51.267Z,41.90
2019-04-21T23:03:21.369Z,42.00
2019-04-21T23:05:53.762Z,41.90
2019-04-21T23:08:31.790Z,41.80
2019-04-21T23:11:03.458Z,41.70
2019-04-21T23:13:36.307Z,41.70
2019-04-21T23:16:09.923Z,41.60
2019-04-21T23:19:05.884Z,41.80
2019-04-21T23:21:41.234Z,42.00
2019-04-21T23:24:22.510Z,41.80
2019-04-21T23:26:53.700Z,42.00
2019-04-21T23:29:46.586Z,42.10
2019-04-21T23:32:03.104Z,42.10
2019-04-21T23:34:26.652Z,41.90
2019-04-21T23:37:06.729Z,42.20
2019-04-21T23:39:32.833Z,42.30
2019-04-21T23:42:03.109Z,42.50
2019-04-21T23:44:41.855Z,42.30
2019-04-21T23:47:11.810Z,42.50
2019-04-21T23:49:51.134Z,42.70
2019-04-21T23:52:16.025Z,42.60
2019-04-21T23:54:45.327Z,42.60
2019-04-21T23:57:26.311Z,42.90
2019-04-21T23:59:53.450Z,42.90
